Time;durP1;ratioP1;P1;durP2;ratioP2;P2;SDS_P1;SDS_P2;PMS_P1;PMS_P2;Temp;Humidity;BMP_temperature;BMP_pressure;BME280_temperature;BME280_humidity;BME280_pressure;Samples;Min_cycle;Max_cycle;Signal;HPM_P1;HPM_P2
2023/07/21 00:01:06;;;;;;;3.97;2.22;;;;;;;;;;4998872;28;20087;-70
2023/07/21 00:03:32;;;;;;;2.88;2.15;;;;;;;;;;5012172;28;20068;-71
2023/07/21 00:06:00;;;;;;;3.90;2.60;;;;;;;;;;5010972;28;20046;-70
2023/07/21 00:08:28;;;;;;;3.78;1.92;;;;;;;;;;5013657;28;20044;-71
2023/07/21 00:10:55;;;;;;;8.38;2.40;;;;;;;;;;5008387;28;20482;-71
2023/07/21 00:13:20;;;;;;;3.63;2.28;;;;;;;;;;5003453;28;20093;-71
2023/07/21 00:15:48;;;;;;;3.25;2.40;;;;;;;;;;5010193;28;20084;-69
2023/07/21 00:18:14;;;;;;;3.88;2.63;;;;;;;;;;5000049;28;20038;-69
2023/07/21 00:20:39;;;;;;;3.17;2.65;;;;;;;;;;4998993;28;20045;-71
2023/07/21 00:23:04;;;;;;;3.90;2.80;;;;;;;;;;5000056;28;20133;-70
2023/07/21 00:25:30;;;;;;;3.65;2.20;;;;;;;;;;5006784;28;20049;-71
2023/07/21 00:27:55;;;;;;;2.83;2.63;;;;;;;;;;5000032;28;20058;-71
2023/07/21 00:30:22;;;;;;;4.13;2.88;;;;;;;;;;4999894;28;20088;-69
2023/07/21 00:32:47;;;;;;;4.57;2.50;;;;;;;;;;5000443;28;20049;-70
2023/07/21 00:35:13;;;;;;;3.25;2.53;;;;;;;;;;4997283;28;20204;-71
2023/07/21 00:37:39;;;;;;;5.57;2.60;;;;;;;;;;4999984;28;20458;-72
2023/07/21 00:40:10;;;;;;;3.88;2.55;;;;;;;;;;5000264;28;20053;-71
2023/07/21 00:42:36;;;;;;;3.63;2.47;;;;;;;;;;5006809;28;20292;-72
2023/07/21 00:45:03;;;;;;;4.18;2.30;;;;;;;;;;5002234;28;20053;-71
2023/07/21 00:47:29;;;;;;;8.02;2.60;;;;;;;;;;5002322;28;20689;-71
2023/07/21 00:49:56;;;;;;;7.50;2.60;;;;;;;;;;4998484;28;20141;-68
2023/07/21 00:52:23;;;;;;;3.88;2.50;;;;;;;;;;5002265;28;20045;-69
2023/07/21 00:54:48;;;;;;;5.03;2.40;;;;;;;;;;5002840;28;20045;-70
2023/07/21 00:57:16;;;;;;;4.03;2.40;;;;;;;;;;5007597;28;20791;-70
2023/07/21 00:59:41;;;;;;;2.92;2.30;;;;;;;;;;5002553;28;20526;-69
2023/07/21 01:02:07;;;;;;;3.20;2.45;;;;;;;;;;5003336;28;20045;-69
2023/07/21 01:04:33;;;;;;;6.47;2.97;;;;;;;;;;5004394;28;20045;-71
2023/07/21 01:07:01;;;;;;;2.38;2.15;;;;;;;;;;5004502;28;20088;-70
2023/07/21 01:09:27;;;;;;;4.72;2.40;;;;;;;;;;5002898;28;20078;-70
2023/07/21 01:11:54;;;;;;;2.63;2.22;;;;;;;;;;5005941;28;20058;-71
2023/07/21 01:14:19;;;;;;;4.25;2.35;;;;;;;;;;5007203;28;20034;-71
2023/07/21 01:16:46;;;;;;;3.80;2.63;;;;;;;;;;5009269;28;20046;-71
2023/07/21 01:19:14;;;;;;;4.10;2.15;;;;;;;;;;5013470;28;20054;-69
2023/07/21 01:21:53;;;;;;;5.22;2.90;;;;;;;;;;5008124;28;20049;-69
2023/07/21 01:24:37;;;;;;;2.53;2.33;;;;;;;;;;5007003;28;20041;-70
2023/07/21 01:27:04;;;;;;;4.70;3.30;;;;;;;;;;5016016;28;20041;-69
2023/07/21 01:29:34;;;;;;;5.28;2.83;;;;;;;;;;5001124;28;20050;-69
2023/07/21 01:32:02;;;;;;;3.42;2.90;;;;;;;;;;5001744;28;20137;-71
2023/07/21 01:34:33;;;;;;;4.30;3.10;;;;;;;;;;5002204;28;20570;-70
2023/07/21 01:37:00;;;;;;;3.88;2.90;;;;;;;;;;5000873;28;20152;-70
2023/07/21 01:39:28;;;;;;;3.88;3.03;;;;;;;;;;5002137;28;20080;-71
2023/07/21 01:41:55;;;;;;;4.20;3.05;;;;;;;;;;5003098;28;20045;-70
2023/07/21 01:44:24;;;;;;;3.22;2.92;;;;;;;;;;5001872;28;20050;-71
2023/07/21 01:46:49;;;;;;;5.18;2.88;;;;;;;;;;5001385;28;20108;-69
2023/07/21 01:49:15;;;;;;;5.22;2.92;;;;;;;;;;5014822;28;20038;-69
2023/07/21 01:51:43;;;;;;;3.42;2.78;;;;;;;;;;4998996;28;20421;-69
2023/07/21 01:54:14;;;;;;;6.10;3.10;;;;;;;;;;5004851;28;20149;-71
2023/07/21 01:56:49;;;;;;;4.38;2.80;;;;;;;;;;5001313;28;20054;-69
2023/07/21 01:59:19;;;;;;;6.10;3.42;;;;;;;;;;5000038;28;20077;-71
2023/07/21 02:01:47;;;;;;;6.32;3.25;;;;;;;;;;5002011;28;20057;-71
2023/07/21 02:04:13;;;;;;;5.50;2.80;;;;;;;;;;5001646;28;20053;-71
2023/07/21 02:06:39;;;;;;;3.90;3.10;;;;;;;;;;5007557;28;20050;-70
2023/07/21 02:09:05;;;;;;;5.85;2.78;;;;;;;;;;5002817;28;20114;-71
2023/07/21 02:11:31;;;;;;;5.15;3.28;;;;;;;;;;5021548;28;20954;-69
2023/07/21 02:14:05;;;;;;;4.38;2.90;;;;;;;;;;5001718;28;20042;-71
2023/07/21 02:16:30;;;;;;;4.35;2.95;;;;;;;;;;5000209;28;20065;-70
2023/07/21 02:18:56;;;;;;;4.28;2.72;;;;;;;;;;5002430;28;20042;-70
2023/07/21 02:21:21;;;;;;;3.78;2.42;;;;;;;;;;4999719;28;20038;-71
2023/07/21 02:23:49;;;;;;;4.72;3.38;;;;;;;;;;5001066;28;20136;-70
2023/07/21 02:26:15;;;;;;;6.20;3.08;;;;;;;;;;5001137;28;20060;-70
2023/07/21 02:28:41;;;;;;;8.05;3.08;;;;;;;;;;5000764;28;20058;-70
2023/07/21 02:31:06;;;;;;;6.55;3.35;;;;;;;;;;4999304;28;20134;-70
2023/07/21 02:33:35;;;;;;;5.45;3.10;;;;;;;;;;5002174;28;20052;-69
2023/07/21 02:36:03;;;;;;;8.73;3.60;;;;;;;;;;5000838;28;20050;-71
2023/07/21 02:38:29;;;;;;;3.35;3.00;;;;;;;;;;5002269;28;20073;-70
2023/07/21 02:40:55;;;;;;;5.75;3.08;;;;;;;;;;5001924;28;20716;-70
2023/07/21 02:43:23;;;;;;;4.35;3.60;;;;;;;;;;5004926;28;20077;-69
2023/07/21 02:45:55;;;;;;;4.47;3.50;;;;;;;;;;5008439;28;20739;-69
2023/07/21 02:48:21;;;;;;;5.38;3.00;;;;;;;;;;5001631;28;20076;-70
2023/07/21 02:50:48;;;;;;;3.92;2.88;;;;;;;;;;5005415;28;20107;-69
2023/07/21 02:53:15;;;;;;;4.20;3.35;;;;;;;;;;5001015;28;20046;-69
2023/07/21 02:55:42;;;;;;;4.85;3.00;;;;;;;;;;5006168;28;20091;-70
2023/07/21 02:58:09;;;;;;;4.20;3.03;;;;;;;;;;5009071;28;20064;-69
2023/07/21 03:00:36;;;;;;;5.57;2.90;;;;;;;;;;5000216;28;20060;-70
2023/07/21 03:03:15;;;;;;;4.15;3.25;;;;;;;;;;4999113;28;20147;-70
2023/07/21 03:05:44;;;;;;;3.75;2.80;;;;;;;;;;4999912;28;20080;-69
2023/07/21 03:08:09;;;;;;;4.55;2.97;;;;;;;;;;4999141;28;20053;-70
2023/07/21 03:10:35;;;;;;;5.10;3.03;;;;;;;;;;5000072;28;20555;-70
2023/07/21 03:13:01;;;;;;;4.32;2.85;;;;;;;;;;5000499;28;20038;-70
2023/07/21 03:15:31;;;;;;;3.45;2.60;;;;;;;;;;5000046;28;20124;-70
2023/07/21 03:18:02;;;;;;;5.05;3.20;;;;;;;;;;4999970;28;20065;-70
2023/07/21 03:20:33;;;;;;;5.60;3.10;;;;;;;;;;5000597;28;20486;-70
2023/07/21 03:22:59;;;;;;;5.28;3.45;;;;;;;;;;5000057;28;20132;-70
2023/07/21 03:25:25;;;;;;;5.85;3.15;;;;;;;;;;4999499;28;20042;-69
2023/07/21 03:27:50;;;;;;;5.75;3.38;;;;;;;;;;4998575;28;20062;-69
2023/07/21 03:30:20;;;;;;;3.25;2.95;;;;;;;;;;5000054;28;20584;-70
2023/07/21 03:32:54;;;;;;;3.33;3.03;;;;;;;;;;5004938;28;20046;-71
2023/07/21 03:35:22;;;;;;;5.10;3.40;;;;;;;;;;5007768;28;20041;-72
2023/07/21 03:37:51;;;;;;;3.88;3.13;;;;;;;;;;5006535;28;20060;-70
2023/07/21 03:40:20;;;;;;;6.03;3.30;;;;;;;;;;5004055;28;20156;-71
2023/07/21 03:42:45;;;;;;;4.53;3.20;;;;;;;;;;4999787;28;20129;-68
2023/07/21 03:45:12;;;;;;;3.85;3.15;;;;;;;;;;4998956;28;20038;-69
2023/07/21 03:47:37;;;;;;;4.65;2.85;;;;;;;;;;5004705;28;20064;-71
2023/07/21 03:50:04;;;;;;;3.88;3.38;;;;;;;;;;5000850;28;20049;-70
2023/07/21 03:52:31;;;;;;;4.00;3.10;;;;;;;;;;4998428;28;20396;-70
2023/07/21 03:54:57;;;;;;;5.38;3.40;;;;;;;;;;4999186;28;20920;-70
2023/07/21 03:57:23;;;;;;;4.03;3.20;;;;;;;;;;4998568;28;20041;-69
2023/07/21 03:59:50;;;;;;;9.25;3.03;;;;;;;;;;4987582;28;20207;-70
2023/07/21 04:02:18;;;;;;;6.72;3.20;;;;;;;;;;4998501;28;20626;-70
2023/07/21 04:04:47;;;;;;;6.07;3.47;;;;;;;;;;4999214;28;20522;-71
2023/07/21 04:07:12;;;;;;;4.40;3.63;;;;;;;;;;4999709;28;20057;-71
2023/07/21 04:09:38;;;;;;;5.25;3.40;;;;;;;;;;5006597;28;20120;-72
2023/07/21 04:12:05;;;;;;;5.78;3.80;;;;;;;;;;4997706;28;20558;-71
2023/07/21 04:14:30;;;;;;;4.47;3.40;;;;;;;;;;5001798;28;20447;-70
2023/07/21 04:16:56;;;;;;;3.90;3.58;;;;;;;;;;5002779;28;20550;-70
2023/07/21 04:19:21;;;;;;;5.43;3.83;;;;;;;;;;4996587;28;20590;-70
2023/07/21 04:21:47;;;;;;;7.70;3.53;;;;;;;;;;5003247;28;20049;-70
2023/07/21 04:24:13;;;;;;;8.13;3.67;;;;;;;;;;4998942;28;20038;-70
2023/07/21 04:26:39;;;;;;;5.60;3.38;;;;;;;;;;4999621;28;20046;-73
2023/07/21 04:29:06;;;;;;;7.85;3.78;;;;;;;;;;5006495;28;20049;-71
2023/07/21 04:31:34;;;;;;;4.18;3.47;;;;;;;;;;4999393;28;20046;-71
2023/07/21 04:34:06;;;;;;;5.95;3.40;;;;;;;;;;5005485;28;20050;-72
2023/07/21 04:36:35;;;;;;;9.93;4.07;;;;;;;;;;4998709;28;20100;-71
2023/07/21 04:39:03;;;;;;;6.32;3.70;;;;;;;;;;5018835;28;20513;-72
2023/07/21 04:41:29;;;;;;;6.22;3.92;;;;;;;;;;5002295;28;20072;-71
2023/07/21 04:43:55;;;;;;;5.72;4.03;;;;;;;;;;4999003;28;20045;-70
2023/07/21 04:46:21;;;;;;;5.65;3.38;;;;;;;;;;5004426;28;20073;-71
2023/07/21 04:48:51;;;;;;;3.80;3.40;;;;;;;;;;5006350;28;20100;-71
2023/07/21 04:51:25;;;;;;;4.22;3.60;;;;;;;;;;5007096;28;20063;-71
2023/07/21 04:53:51;;;;;;;8.73;3.75;;;;;;;;;;5005585;28;20046;-71
2023/07/21 04:56:16;;;;;;;5.22;3.50;;;;;;;;;;4987564;28;20111;-71
2023/07/21 04:58:48;;;;;;;4.80;3.08;;;;;;;;;;5003549;28;20467;-72
2023/07/21 05:01:15;;;;;;;4.13;3.38;;;;;;;;;;5003584;28;20128;-72
2023/07/21 05:03:42;;;;;;;5.35;3.55;;;;;;;;;;5000112;28;20438;-72
2023/07/21 05:06:09;;;;;;;4.22;3.20;;;;;;;;;;5003127;28;20042;-72
2023/07/21 05:08:36;;;;;;;5.00;3.67;;;;;;;;;;5004712;28;20414;-72
2023/07/21 05:11:03;;;;;;;6.40;3.42;;;;;;;;;;5006822;28;20045;-71
2023/07/21 05:13:28;;;;;;;6.95;3.72;;;;;;;;;;5008752;28;20119;-71
2023/07/21 05:16:00;;;;;;;7.65;3.83;;;;;;;;;;5006996;28;20052;-72
2023/07/21 05:18:40;;;;;;;4.30;3.50;;;;;;;;;;5021741;28;20046;-72
2023/07/21 05:21:06;;;;;;;3.55;3.10;;;;;;;;;;5010056;28;20496;-72
2023/07/21 05:23:41;;;;;;;4.22;3.35;;;;;;;;;;5008052;28;20049;-72
2023/07/21 05:26:13;;;;;;;5.55;3.17;;;;;;;;;;5012549;28;21190;-71
2023/07/21 05:28:39;;;;;;;5.38;3.30;;;;;;;;;;5008586;28;20054;-72
2023/07/21 05:31:06;;;;;;;6.90;3.20;;;;;;;;;;5007393;28;20053;-72
2023/07/21 05:33:41;;;;;;;3.20;2.80;;;;;;;;;;5004686;28;20145;-72
2023/07/21 05:36:10;;;;;;;6.97;3.17;;;;;;;;;;5007517;28;20111;-71
2023/07/21 05:38:37;;;;;;;6.30;3.13;;;;;;;;;;5010838;28;20132;-72
2023/07/21 05:41:05;;;;;;;4.82;2.90;;;;;;;;;;5012096;28;20223;-71
2023/07/21 05:43:32;;;;;;;4.35;3.10;;;;;;;;;;5014266;28;20558;-72
2023/07/21 05:45:58;;;;;;;5.68;2.95;;;;;;;;;;5025338;28;20057;-72
2023/07/21 05:48:24;;;;;;;4.35;2.92;;;;;;;;;;5012154;28;20049;-71
2023/07/21 05:50:53;;;;;;;3.33;3.00;;;;;;;;;;5012340;28;20054;-71
2023/07/21 05:53:19;;;;;;;9.32;3.17;;;;;;;;;;5013276;28;20061;-72
2023/07/21 05:55:46;;;;;;;8.20;3.28;;;;;;;;;;5010648;28;20415;-72
2023/07/21 05:58:22;;;;;;;5.43;3.33;;;;;;;;;;5008729;28;20046;-72
2023/07/21 06:00:49;;;;;;;7.00;3.08;;;;;;;;;;5028474;28;20046;-72
2023/07/21 06:03:14;;;;;;;5.00;3.22;;;;;;;;;;5012239;28;20042;-72
2023/07/21 06:05:40;;;;;;;3.83;3.22;;;;;;;;;;5011198;28;20050;-71
2023/07/21 06:08:09;;;;;;;5.00;3.28;;;;;;;;;;5009665;28;20060;-71
2023/07/21 06:10:57;;;;;;;4.40;3.28;;;;;;;;;;5005138;28;20041;-71
2023/07/21 06:14:02;;;;;;;6.85;3.40;;;;;;;;;;4978246;28;20058;-72
2023/07/21 06:16:27;;;;;;;4.75;3.38;;;;;;;;;;4985806;28;20093;-71
2023/07/21 06:18:53;;;;;;;3.72;3.33;;;;;;;;;;4984966;28;20056;-72
2023/07/21 06:21:20;;;;;;;6.22;3.50;;;;;;;;;;5002984;28;20041;-73
2023/07/21 06:23:46;;;;;;;5.05;3.25;;;;;;;;;;5002016;28;20046;-71
2023/07/21 06:26:12;;;;;;;4.30;3.30;;;;;;;;;;5002238;28;20605;-71
2023/07/21 06:28:37;;;;;;;4.05;2.95;;;;;;;;;;5010389;28;20062;-71
2023/07/21 06:31:03;;;;;;;3.40;2.83;;;;;;;;;;5009440;28;20388;-71
2023/07/21 06:33:50;;;;;;;5.22;3.15;;;;;;;;;;4991137;28;20057;-71
2023/07/21 06:36:27;;;;;;;7.07;3.15;;;;;;;;;;5010901;28;20038;-71
2023/07/21 06:39:18;;;;;;;4.35;2.90;;;;;;;;;;5007928;28;20045;-71
2023/07/21 06:41:56;;;;;;;3.67;2.90;;;;;;;;;;5001070;28;20050;-71
2023/07/21 06:44:37;;;;;;;3.80;2.90;;;;;;;;;;5005041;28;20157;-71
2023/07/21 06:47:20;;;;;;;4.43;3.20;;;;;;;;;;4999839;28;20092;-73
2023/07/21 06:49:53;;;;;;;6.63;3.22;;;;;;;;;;5001472;28;20063;-73
2023/07/21 06:52:25;;;;;;;4.85;3.00;;;;;;;;;;5003189;28;20506;-74
2023/07/21 06:54:51;;;;;;;4.30;3.10;;;;;;;;;;5012051;28;20527;-73
2023/07/21 06:57:16;;;;;;;6.38;2.78;;;;;;;;;;5005838;28;20052;-72
2023/07/21 06:59:42;;;;;;;4.72;2.83;;;;;;;;;;5001393;28;20462;-73
2023/07/21 07:02:08;;;;;;;5.93;3.10;;;;;;;;;;5001378;28;20543;-71
2023/07/21 07:04:33;;;;;;;5.13;2.88;;;;;;;;;;5002169;28;20056;-71
2023/07/21 07:06:58;;;;;;;8.70;3.30;;;;;;;;;;5008327;28;20508;-71
2023/07/21 07:09:25;;;;;;;15.23;3.10;;;;;;;;;;5000922;28;20042;-70
2023/07/21 07:11:52;;;;;;;3.85;2.88;;;;;;;;;;5000305;28;20054;-73
2023/07/21 07:14:18;;;;;;;5.55;2.78;;;;;;;;;;5007984;28;20049;-72
2023/07/21 07:16:43;;;;;;;3.15;2.50;;;;;;;;;;5010066;28;20464;-71
2023/07/21 07:19:09;;;;;;;2.97;2.38;;;;;;;;;;5010629;28;20077;-71
2023/07/21 07:21:35;;;;;;;5.88;2.67;;;;;;;;;;5005954;28;20056;-70
2023/07/21 07:24:01;;;;;;;2.55;2.20;;;;;;;;;;5003826;28;20050;-71
2023/07/21 07:26:27;;;;;;;2.50;2.03;;;;;;;;;;5004717;28;20475;-71
2023/07/21 07:28:53;;;;;;;2.80;2.25;;;;;;;;;;5003365;28;20582;-72
2023/07/21 07:31:18;;;;;;;10.75;2.53;;;;;;;;;;5009272;28;20087;-71
2023/07/21 07:33:44;;;;;;;3.92;2.45;;;;;;;;;;5001059;28;20046;-71
2023/07/21 07:36:11;;;;;;;3.53;2.20;;;;;;;;;;5001349;28;20181;-71
2023/07/21 07:38:38;;;;;;;6.47;2.28;;;;;;;;;;5004114;28;20052;-71
2023/07/21 07:41:08;;;;;;;3.35;2.53;;;;;;;;;;5008300;28;20878;-72
2023/07/21 07:43:34;;;;;;;4.45;2.53;;;;;;;;;;5001449;28;20054;-71
2023/07/21 07:46:00;;;;;;;2.00;1.90;;;;;;;;;;5003455;28;20049;-73
2023/07/21 07:48:26;;;;;;;3.33;2.42;;;;;;;;;;5002039;28;20046;-73
2023/07/21 07:50:51;;;;;;;2.55;2.10;;;;;;;;;;5010419;28;20061;-71
2023/07/21 07:53:17;;;;;;;3.10;2.40;;;;;;;;;;5001036;28;20158;-71
2023/07/21 07:55:44;;;;;;;3.58;2.30;;;;;;;;;;5000617;28;20091;-71
2023/07/21 07:58:10;;;;;;;2.40;2.20;;;;;;;;;;5000854;28;20053;-71
2023/07/21 08:00:37;;;;;;;4.25;2.15;;;;;;;;;;4999605;28;20050;-71
2023/07/21 08:03:04;;;;;;;5.00;2.28;;;;;;;;;;5001692;28;20045;-72
2023/07/21 08:05:31;;;;;;;4.07;2.63;;;;;;;;;;5003566;28;20521;-72
2023/07/21 08:07:58;;;;;;;8.65;2.40;;;;;;;;;;5008264;28;20137;-73
2023/07/21 08:10:27;;;;;;;2.70;2.30;;;;;;;;;;5007122;28;20072;-73
2023/07/21 08:12:56;;;;;;;3.10;2.00;;;;;;;;;;5004265;28;20049;-72
2023/07/21 08:15:23;;;;;;;2.55;2.00;;;;;;;;;;5000207;28;20060;-72
2023/07/21 08:17:50;;;;;;;2.05;1.88;;;;;;;;;;4999482;28;20081;-71
2023/07/21 08:20:16;;;;;;;4.45;2.30;;;;;;;;;;5000892;28;20061;-73
2023/07/21 08:22:42;;;;;;;4.78;2.33;;;;;;;;;;5000696;28;20053;-73
2023/07/21 08:25:08;;;;;;;3.17;2.20;;;;;;;;;;5013302;28;20061;-74
2023/07/21 08:27:36;;;;;;;2.35;2.05;;;;;;;;;;4999686;28;20054;-74
2023/07/21 08:30:02;;;;;;;8.32;2.88;;;;;;;;;;5000584;28;20049;-73
2023/07/21 08:32:27;;;;;;;3.22;2.35;;;;;;;;;;5004470;28;20050;-74
2023/07/21 08:34:56;;;;;;;5.30;2.30;;;;;;;;;;5005342;28;20045;-72
2023/07/21 08:37:22;;;;;;;2.67;2.20;;;;;;;;;;5012362;28;20057;-70
2023/07/21 08:39:48;;;;;;;1.88;1.77;;;;;;;;;;4998862;28;20070;-74
2023/07/21 08:42:14;;;;;;;5.30;2.00;;;;;;;;;;4999784;28;20053;-71
2023/07/21 08:44:40;;;;;;;2.28;1.98;;;;;;;;;;5009433;28;20046;-71
2023/07/21 08:47:06;;;;;;;2.47;2.20;;;;;;;;;;5006218;28;20144;-70
2023/07/21 08:49:32;;;;;;;2.45;2.25;;;;;;;;;;5004009;28;20085;-70
2023/07/21 08:51:58;;;;;;;6.13;2.40;;;;;;;;;;5005807;28;20042;-71
2023/07/21 08:54:23;;;;;;;4.10;2.00;;;;;;;;;;5002982;28;20057;-74
2023/07/21 08:56:49;;;;;;;2.40;2.17;;;;;;;;;;5000758;28;20053;-74
2023/07/21 08:59:17;;;;;;;5.68;2.17;;;;;;;;;;4999527;28;20084;-74
2023/07/21 09:01:42;;;;;;;2.72;2.28;;;;;;;;;;5000492;28;20050;-72
2023/07/21 09:04:23;;;;;;;3.25;2.15;;;;;;;;;;5008399;28;20052;-72
2023/07/21 09:06:53;;;;;;;3.53;2.22;;;;;;;;;;5000205;28;20045;-71
2023/07/21 09:09:20;;;;;;;4.05;2.30;;;;;;;;;;5005075;28;20053;-71
2023/07/21 09:11:46;;;;;;;7.50;2.20;;;;;;;;;;5003415;28;20115;-70
2023/07/21 09:14:12;;;;;;;2.92;2.30;;;;;;;;;;5003601;28;20054;-70
2023/07/21 09:16:41;;;;;;;2.70;1.80;;;;;;;;;;5013359;28;20695;-71
2023/07/21 09:19:07;;;;;;;4.00;2.10;;;;;;;;;;5009143;28;20045;-71
2023/07/21 09:21:35;;;;;;;3.20;2.13;;;;;;;;;;5001577;28;20311;-70
2023/07/21 09:24:05;;;;;;;7.32;2.20;;;;;;;;;;5009975;28;20158;-71
2023/07/21 09:26:31;;;;;;;3.10;2.08;;;;;;;;;;5014828;28;20064;-71
2023/07/21 09:28:57;;;;;;;2.40;2.20;;;;;;;;;;5006773;28;20430;-71
2023/07/21 09:31:31;;;;;;;4.78;1.80;;;;;;;;;;5006512;28;20491;-73
2023/07/21 09:34:09;;;;;;;2.90;1.88;;;;;;;;;;5003748;28;20506;-70
2023/07/21 09:36:35;;;;;;;2.33;1.98;;;;;;;;;;5021608;28;20076;-70
2023/07/21 09:39:04;;;;;;;2.13;1.77;;;;;;;;;;5009021;28;20102;-70
2023/07/21 09:41:33;;;;;;;3.35;2.05;;;;;;;;;;5010697;28;20099;-71
2023/07/21 09:44:00;;;;;;;4.20;2.03;;;;;;;;;;5003613;28;20050;-71
2023/07/21 09:46:27;;;;;;;2.80;1.67;;;;;;;;;;5007024;28;20096;-71
2023/07/21 09:48:56;;;;;;;2.53;1.60;;;;;;;;;;5011504;28;20100;-71
2023/07/21 09:51:21;;;;;;;2.13;1.73;;;;;;;;;;5011424;28;20053;-71
2023/07/21 09:53:49;;;;;;;2.42;1.70;;;;;;;;;;5011439;28;20391;-71
2023/07/21 09:56:16;;;;;;;2.47;1.75;;;;;;;;;;5009619;28;20038;-71
2023/07/21 09:58:47;;;;;;;1.65;1.55;;;;;;;;;;5016404;28;20049;-72
2023/07/21 10:01:12;;;;;;;2.15;1.67;;;;;;;;;;5008837;28;20160;-71
2023/07/21 10:03:38;;;;;;;2.30;1.70;;;;;;;;;;5002146;28;20419;-72
2023/07/21 10:06:06;;;;;;;1.42;1.33;;;;;;;;;;5004816;28;20071;-72
2023/07/21 10:08:33;;;;;;;1.70;1.60;;;;;;;;;;5008503;28;20049;-73
2023/07/21 10:11:00;;;;;;;3.15;1.60;;;;;;;;;;5003105;28;20058;-71
2023/07/21 10:13:26;;;;;;;1.75;1.20;;;;;;;;;;5011324;28;20045;-71
2023/07/21 10:15:52;;;;;;;1.52;1.42;;;;;;;;;;5002803;28;20045;-71
2023/07/21 10:18:18;;;;;;;3.92;1.63;;;;;;;;;;5002209;28;20050;-72
2023/07/21 10:20:52;;;;;;;2.92;1.60;;;;;;;;;;5002847;28;20049;-73
2023/07/21 10:23:40;;;;;;;1.70;1.60;;;;;;;;;;5000721;28;20103;-73
2023/07/21 10:26:12;;;;;;;3.08;1.70;;;;;;;;;;5001493;28;20049;-72
2023/07/21 10:28:43;;;;;;;1.92;1.45;;;;;;;;;;5005075;28;20404;-73
2023/07/21 10:31:36;;;;;;;1.58;1.48;;;;;;;;;;5000976;28;20093;-72
2023/07/21 10:34:13;;;;;;;1.75;1.42;;;;;;;;;;5004000;28;20045;-72
2023/07/21 10:36:58;;;;;;;1.67;1.30;;;;;;;;;;5005224;28;20054;-72
2023/07/21 10:39:26;;;;;;;1.88;1.30;;;;;;;;;;5008828;28;20053;-71
2023/07/21 10:41:57;;;;;;;1.65;1.20;;;;;;;;;;5007480;28;20508;-73
2023/07/21 10:44:23;;;;;;;2.03;1.40;;;;;;;;;;5005045;28;20662;-71
2023/07/21 10:46:51;;;;;;;1.75;1.40;;;;;;;;;;5002786;28;20057;-73
2023/07/21 10:49:18;;;;;;;1.77;1.40;;;;;;;;;;4996915;28;20054;-72
2023/07/21 10:51:49;;;;;;;1.40;1.30;;;;;;;;;;5000055;28;20057;-74
2023/07/21 10:54:16;;;;;;;1.75;1.30;;;;;;;;;;5005542;28;20046;-73
2023/07/21 10:56:42;;;;;;;1.23;1.15;;;;;;;;;;5008305;28;20688;-73
2023/07/21 10:59:11;;;;;;;2.42;1.30;;;;;;;;;;5003496;28;20137;-72
2023/07/21 11:01:41;;;;;;;2.03;1.35;;;;;;;;;;4999798;28;20153;-72
2023/07/21 11:04:07;;;;;;;3.50;1.30;;;;;;;;;;5007957;28;20049;-72
2023/07/21 11:06:39;;;;;;;1.60;1.15;;;;;;;;;;4999515;28;20140;-74
2023/07/21 11:09:04;;;;;;;1.23;1.13;;;;;;;;;;4999254;28;20054;-73
2023/07/21 11:11:29;;;;;;;1.25;1.10;;;;;;;;;;5004208;28;20053;-71
2023/07/21 11:13:55;;;;;;;1.63;1.20;;;;;;;;;;5000691;28;20064;-72
2023/07/21 11:16:20;;;;;;;1.20;1.02;;;;;;;;;;5008909;28;20049;-72
2023/07/21 11:18:46;;;;;;;1.15;1.05;;;;;;;;;;5012500;28;20521;-72
2023/07/21 11:21:11;;;;;;;1.42;1.20;;;;;;;;;;5005498;28;20391;-74
2023/07/21 11:23:37;;;;;;;1.40;1.30;;;;;;;;;;5006619;28;20459;-74
2023/07/21 11:26:11;;;;;;;2.75;1.30;;;;;;;;;;5002743;28;20419;-74
2023/07/21 11:28:40;;;;;;;1.02;1.02;;;;;;;;;;5003805;28;20479;-73
2023/07/21 11:31:13;;;;;;;1.50;1.30;;;;;;;;;;4999371;28;20060;-73
2023/07/21 11:33:44;;;;;;;1.23;1.15;;;;;;;;;;4997443;28;20065;-74
2023/07/21 11:36:17;;;;;;;1.42;1.00;;;;;;;;;;4999935;28;20054;-74
2023/07/21 11:38:58;;;;;;;1.60;1.30;;;;;;;;;;4999480;28;20049;-74
2023/07/21 11:41:40;;;;;;;1.20;1.08;;;;;;;;;;5002053;28;20118;-72
2023/07/21 11:44:15;;;;;;;1.50;1.40;;;;;;;;;;4999270;28;20503;-73
2023/07/21 11:46:41;;;;;;;1.27;1.17;;;;;;;;;;5007944;28;20041;-74
2023/07/21 11:49:10;;;;;;;1.27;1.10;;;;;;;;;;5009807;28;20070;-73
2023/07/21 11:51:52;;;;;;;1.27;1.17;;;;;;;;;;4999798;28;20045;-73
2023/07/21 11:54:23;;;;;;;2.90;1.25;;;;;;;;;;4997895;28;20050;-71
2023/07/21 11:56:50;;;;;;;1.63;1.15;;;;;;;;;;5003340;28;20058;-70
2023/07/21 11:59:17;;;;;;;1.75;1.20;;;;;;;;;;4998705;28;20033;-72
2023/07/21 12:01:43;;;;;;;2.88;1.40;;;;;;;;;;5001175;28;20064;-73
2023/07/21 12:04:10;;;;;;;2.35;1.33;;;;;;;;;;5003597;28;20050;-72
2023/07/21 12:06:36;;;;;;;2.58;1.40;;;;;;;;;;5001325;28;20046;-73
2023/07/21 12:09:05;;;;;;;1.83;1.55;;;;;;;;;;5001920;28;20058;-72
2023/07/21 12:11:32;;;;;;;4.53;1.58;;;;;;;;;;4998304;28;21822;-73
2023/07/21 12:13:57;;;;;;;3.25;1.90;;;;;;;;;;4998802;28;20041;-73
2023/07/21 12:16:23;;;;;;;1.50;1.40;;;;;;;;;;4998308;28;20056;-72
2023/07/21 12:18:48;;;;;;;2.10;1.27;;;;;;;;;;4999532;28;20510;-74
2023/07/21 12:21:17;;;;;;;2.38;1.48;;;;;;;;;;5007609;28;20044;-74
2023/07/21 12:23:45;;;;;;;3.40;1.35;;;;;;;;;;5009680;28;20115;-74
2023/07/21 12:26:11;;;;;;;1.73;1.33;;;;;;;;;;5006386;28;20049;-74
2023/07/21 12:28:37;;;;;;;1.63;1.33;;;;;;;;;;5007757;28;20056;-74
2023/07/21 12:31:03;;;;;;;2.65;1.25;;;;;;;;;;5005904;28;20049;-73
2023/07/21 12:33:28;;;;;;;1.60;1.42;;;;;;;;;;5006447;28;20048;-74
2023/07/21 12:35:54;;;;;;;3.35;1.65;;;;;;;;;;5007264;28;20050;-74
2023/07/21 12:38:20;;;;;;;2.08;1.40;;;;;;;;;;5006303;28;20507;-73
2023/07/21 12:40:46;;;;;;;9.65;1.65;;;;;;;;;;5008156;28;20413;-73
2023/07/21 12:43:12;;;;;;;2.65;1.30;;;;;;;;;;5005859;28;20041;-74
2023/07/21 12:45:38;;;;;;;2.28;1.15;;;;;;;;;;5006262;28;20164;-74
2023/07/21 12:48:04;;;;;;;1.35;1.25;;;;;;;;;;5009355;28;20148;-73
2023/07/21 12:50:30;;;;;;;1.35;1.20;;;;;;;;;;5012521;28;20116;-73
2023/07/21 12:52:55;;;;;;;1.20;1.10;;;;;;;;;;5011831;28;20881;-73
2023/07/21 12:55:20;;;;;;;1.50;1.10;;;;;;;;;;5008762;28;20041;-73
2023/07/21 12:57:46;;;;;;;1.13;1.02;;;;;;;;;;5012913;28;20049;-73
2023/07/21 13:00:13;;;;;;;1.50;1.33;;;;;;;;;;5010222;28;20046;-73
2023/07/21 13:02:39;;;;;;;2.38;1.60;;;;;;;;;;5010071;28;20495;-73
2023/07/21 13:05:06;;;;;;;2.03;1.20;;;;;;;;;;5006856;28;20038;-72
2023/07/21 13:07:32;;;;;;;1.63;1.40;;;;;;;;;;5011586;28;20058;-72
2023/07/21 13:09:58;;;;;;;1.48;1.17;;;;;;;;;;5007521;28;20597;-72
2023/07/21 13:12:23;;;;;;;1.27;1.05;;;;;;;;;;5003655;28;20510;-72
2023/07/21 13:14:48;;;;;;;3.70;1.23;;;;;;;;;;5011356;28;20065;-72
2023/07/21 13:17:14;;;;;;;2.38;1.40;;;;;;;;;;5009596;28;20045;-73
2023/07/21 13:19:40;;;;;;;1.77;1.17;;;;;;;;;;5010279;28;20061;-73
2023/07/21 13:22:05;;;;;;;1.23;1.10;;;;;;;;;;5002610;28;20495;-74
2023/07/21 13:24:31;;;;;;;1.30;1.20;;;;;;;;;;5002300;28;20502;-73
2023/07/21 13:26:57;;;;;;;1.40;1.30;;;;;;;;;;5009742;28;20046;-74
2023/07/21 13:29:22;;;;;;;1.23;1.13;;;;;;;;;;5010361;28;20139;-75
2023/07/21 13:31:48;;;;;;;2.08;1.30;;;;;;;;;;5005369;28;20080;-75
2023/07/21 13:34:13;;;;;;;1.25;1.15;;;;;;;;;;5005227;28;20050;-76
2023/07/21 13:36:40;;;;;;;1.63;1.30;;;;;;;;;;5012880;28;20044;-74
2023/07/21 13:39:05;;;;;;;1.48;1.38;;;;;;;;;;5011404;28;20073;-74
2023/07/21 13:41:32;;;;;;;1.85;1.30;;;;;;;;;;5007952;28;20046;-75
2023/07/21 13:43:58;;;;;;;1.73;1.42;;;;;;;;;;5007884;28;20178;-76
2023/07/21 13:46:24;;;;;;;4.95;1.15;;;;;;;;;;5003060;28;20462;-74
2023/07/21 13:48:51;;;;;;;1.55;1.45;;;;;;;;;;5014361;28;20441;-76
2023/07/21 13:51:16;;;;;;;2.63;1.70;;;;;;;;;;5003905;28;20052;-75
2023/07/21 13:53:41;;;;;;;1.92;1.30;;;;;;;;;;5007018;28;20054;-76
2023/07/21 13:56:07;;;;;;;1.55;1.13;;;;;;;;;;5008297;28;20041;-74
2023/07/21 13:58:32;;;;;;;4.75;1.40;;;;;;;;;;5006475;28;20053;-76
2023/07/21 14:00:58;;;;;;;5.05;1.40;;;;;;;;;;5006482;28;20049;-77
2023/07/21 14:03:26;;;;;;;2.60;1.05;;;;;;;;;;5005551;28;20096;-75
2023/07/21 14:05:52;;;;;;;1.83;1.30;;;;;;;;;;5006567;28;20049;-75
2023/07/21 14:08:21;;;;;;;1.50;1.30;;;;;;;;;;4996231;28;20054;-75
2023/07/21 14:10:48;;;;;;;2.45;1.33;;;;;;;;;;5004091;28;20084;-75
2023/07/21 14:13:13;;;;;;;2.03;1.25;;;;;;;;;;5011853;28;20049;-75
2023/07/21 14:15:39;;;;;;;1.83;1.23;;;;;;;;;;5004727;28;20041;-76
2023/07/21 14:18:05;;;;;;;1.33;1.08;;;;;;;;;;5003087;28;20906;-75
2023/07/21 14:20:32;;;;;;;1.52;1.27;;;;;;;;;;4999695;28;20050;-76
2023/07/21 14:22:57;;;;;;;2.75;1.40;;;;;;;;;;5005738;28;20067;-75
2023/07/21 14:25:23;;;;;;;1.55;1.30;;;;;;;;;;5002788;28;20681;-75
2023/07/21 14:27:49;;;;;;;4.53;1.40;;;;;;;;;;5018046;28;20085;-75
2023/07/21 14:30:15;;;;;;;3.65;1.30;;;;;;;;;;5008775;28;20103;-75
2023/07/21 14:32:41;;;;;;;1.90;1.10;;;;;;;;;;5005648;28;20050;-75
2023/07/21 14:35:09;;;;;;;1.58;1.30;;;;;;;;;;4999698;28;20064;-75
2023/07/21 14:37:35;;;;;;;1.80;1.40;;;;;;;;;;4997415;28;20053;-74
2023/07/21 14:40:01;;;;;;;3.47;1.70;;;;;;;;;;5000771;28;20050;-75
2023/07/21 14:42:27;;;;;;;1.85;1.30;;;;;;;;;;5007735;28;20060;-71
2023/07/21 14:44:52;;;;;;;2.25;1.60;;;;;;;;;;5005619;28;20049;-70
2023/07/21 14:47:19;;;;;;;2.15;1.60;;;;;;;;;;4999730;28;20458;-75